NKS2A KMCO-KEWR
Flight info
| Callsign | NKS2A |
|---|---|
| Flight time | N/A |
| Altitude | 35000 |
| Route | FATHE4 VIYAP Q87 ALWZZ OGRAE Q99 QUART PHLBO4 |
| Aircraft | A320/M-SDE3FGHIRWY/LB1 |
Departure
| Time | 2026-05-05 15:00 |
|---|---|
| Airport | Orlando International Airport (KMCO) |
Arrival
| Time | N/A |
|---|---|
| Airport | Newark Liberty International Airport (KEWR) |
| Time | Latitude | Longitude | Altitude | Speed | Heading |
|---|---|---|---|---|---|
| 2026-05-05 14:34 | 28.43450 | -81.31336 | 97 ft | 0 kts | 327° |
| 2026-05-05 14:44 | 28.43440 | -81.31328 | 94 ft | 3 kts | 316° |
| 2026-05-05 14:45 | 28.43428 | -81.31311 | 95 ft | 3 kts | 305° |
| 2026-05-05 14:45 | 28.43414 | -81.31299 | 95 ft | 3 kts | 342° |
| 2026-05-05 14:45 | 28.43405 | -81.31296 | 94 ft | 0 kts | 342° |
| 2026-05-05 14:48 | 28.43406 | -81.31296 | 94 ft | 1 kts | 342° |
| 2026-05-05 14:48 | 28.43413 | -81.31295 | 95 ft | 0 kts | 20° |
| 2026-05-05 14:48 | 28.43420 | -81.31285 | 95 ft | 4 kts | 44° |
| 2026-05-05 14:49 | 28.43437 | -81.31252 | 94 ft | 6 kts | 61° |
| 2026-05-05 14:49 | 28.43470 | -81.31191 | 96 ft | 13 kts | 56° |
| 2026-05-05 14:49 | 28.43549 | -81.31139 | 96 ft | 14 kts | 6° |
| 2026-05-05 14:49 | 28.43649 | -81.31166 | 96 ft | 16 kts | 327° |
| 2026-05-05 14:50 | 28.43739 | -81.31235 | 96 ft | 15 kts | 324° |
| 2026-05-05 14:50 | 28.43792 | -81.31339 | 101 ft | 18 kts | 288° |
| 2026-05-05 14:50 | 28.43834 | -81.31484 | 105 ft | 20 kts | 283° |
| 2026-05-05 14:50 | 28.43849 | -81.31643 | 106 ft | 21 kts | 273° |
| 2026-05-05 14:51 | 28.43850 | -81.31776 | 100 ft | 17 kts | 269° |
| 2026-05-05 14:51 | 28.43769 | -81.31848 | 100 ft | 19 kts | 179° |
| 2026-05-05 14:51 | 28.43632 | -81.31843 | 100 ft | 20 kts | 180° |
| 2026-05-05 14:51 | 28.43485 | -81.31844 | 98 ft | 22 kts | 179° |
| 2026-05-05 14:52 | 28.43326 | -81.31842 | 99 ft | 24 kts | 179° |
| 2026-05-05 14:52 | 28.43158 | -81.31841 | 99 ft | 24 kts | 179° |
| 2026-05-05 14:52 | 28.42985 | -81.31839 | 100 ft | 26 kts | 179° |
| 2026-05-05 14:52 | 28.42804 | -81.31834 | 101 ft | 26 kts | 180° |
| 2026-05-05 14:53 | 28.42624 | -81.31835 | 102 ft | 26 kts | 179° |
| 2026-05-05 14:53 | 28.42439 | -81.31833 | 101 ft | 27 kts | 180° |
| 2026-05-05 14:53 | 28.42275 | -81.31824 | 99 ft | 16 kts | 146° |
| 2026-05-05 14:53 | 28.42265 | -81.31724 | 98 ft | 15 kts | 90° |
| 2026-05-05 14:54 | 28.42266 | -81.31591 | 97 ft | 21 kts | 89° |
| 2026-05-05 14:54 | 28.42268 | -81.31408 | 96 ft | 24 kts | 90° |
| 2026-05-05 14:54 | 28.42262 | -81.31209 | 94 ft | 26 kts | 98° |
| 2026-05-05 14:54 | 28.42234 | -81.31010 | 94 ft | 25 kts | 93° |
| 2026-05-05 14:55 | 28.42243 | -81.30815 | 98 ft | 24 kts | 85° |
| 2026-05-05 14:55 | 28.42255 | -81.30625 | 96 ft | 24 kts | 86° |
| 2026-05-05 14:55 | 28.42269 | -81.30429 | 94 ft | 25 kts | 85° |
| 2026-05-05 14:55 | 28.42277 | -81.30225 | 94 ft | 26 kts | 90° |
| 2026-05-05 14:56 | 28.42277 | -81.30017 | 94 ft | 27 kts | 90° |
| 2026-05-05 14:56 | 28.42264 | -81.29821 | 96 ft | 23 kts | 128° |
| 2026-05-05 14:56 | 28.42109 | -81.29790 | 95 ft | 24 kts | 180° |
| 2026-05-05 14:56 | 28.41940 | -81.29789 | 96 ft | 25 kts | 179° |
| 2026-05-05 14:57 | 28.41762 | -81.29787 | 95 ft | 26 kts | 179° |
| 2026-05-05 14:57 | 28.41576 | -81.29781 | 96 ft | 27 kts | 177° |
| 2026-05-05 14:57 | 28.41392 | -81.29784 | 94 ft | 24 kts | 179° |
| 2026-05-05 14:57 | 28.41220 | -81.29782 | 94 ft | 25 kts | 179° |
| 2026-05-05 14:58 | 28.41040 | -81.29780 | 94 ft | 26 kts | 179° |
| 2026-05-05 14:58 | 28.40878 | -81.29777 | 94 ft | 21 kts | 179° |
| 2026-05-05 14:58 | 28.40820 | -81.29684 | 94 ft | 17 kts | 89° |
| 2026-05-05 14:58 | 28.40863 | -81.29567 | 93 ft | 20 kts | 22° |
| 2026-05-05 14:59 | 28.41142 | -81.29562 | 96 ft | 71 kts | 360° |
| 2026-05-05 14:59 | 28.41842 | -81.29568 | 97 ft | 127 kts | 358° |
| 2026-05-05 14:59 | 28.42870 | -81.29576 | 101 ft | 168 kts | 359° |
| 2026-05-05 14:59 | 28.44060 | -81.29590 | 625 ft | 170 kts | 2° |
| 2026-05-05 15:00 | 28.45211 | -81.29415 | 1233 ft | 166 kts | 26° |
| 2026-05-05 15:00 | 28.45895 | -81.29004 | 1659 ft | 164 kts | 33° |
| 2026-05-05 15:00 | 28.47265 | -81.28066 | 2233 ft | 182 kts | 33° |
| 2026-05-05 15:00 | 28.48383 | -81.27302 | 2611 ft | 195 kts | 32° |
| 2026-05-05 15:01 | 28.49607 | -81.26473 | 2894 ft | 217 kts | 33° |
| 2026-05-05 15:01 | 28.50995 | -81.25573 | 3271 ft | 242 kts | 25° |
| 2026-05-05 15:01 | 28.52700 | -81.25171 | 3807 ft | 260 kts | 2° |
| 2026-05-05 15:01 | 28.54533 | -81.25119 | 4566 ft | 267 kts | 0° |
| 2026-05-05 15:02 | 28.56409 | -81.25155 | 5375 ft | 271 kts | 356° |
| 2026-05-05 15:02 | 28.58274 | -81.25236 | 6228 ft | 272 kts | 355° |
| 2026-05-05 15:02 | 28.60208 | -81.25399 | 6822 ft | 279 kts | 351° |
| 2026-05-05 15:02 | 28.62135 | -81.25670 | 7026 ft | 280 kts | 349° |
| 2026-05-05 15:03 | 28.64067 | -81.25981 | 7565 ft | 281 kts | 349° |
| 2026-05-05 15:03 | 28.66002 | -81.26299 | 8415 ft | 282 kts | 349° |
| 2026-05-05 15:03 | 28.67941 | -81.26602 | 9132 ft | 288 kts | 350° |
| 2026-05-05 15:03 | 28.69968 | -81.26905 | 9890 ft | 292 kts | 350° |
| 2026-05-05 15:04 | 28.72014 | -81.27201 | 10381 ft | 306 kts | 350° |
| 2026-05-05 15:04 | 28.74209 | -81.27511 | 10562 ft | 329 kts | 351° |
| 2026-05-05 15:04 | 28.76559 | -81.27836 | 10703 ft | 351 kts | 351° |
| 2026-05-05 15:04 | 28.79030 | -81.28169 | 11115 ft | 361 kts | 351° |
| 2026-05-05 15:05 | 28.84077 | -81.28843 | 12376 ft | 368 kts | 350° |
| 2026-05-05 15:05 | 28.86634 | -81.29137 | 12998 ft | 371 kts | 352° |
| 2026-05-05 15:05 | 28.89221 | -81.29369 | 13614 ft | 374 kts | 352° |
| 2026-05-05 15:06 | 28.91830 | -81.29568 | 14181 ft | 377 kts | 352° |
| 2026-05-05 15:06 | 28.94456 | -81.29761 | 14734 ft | 379 kts | 352° |
| 2026-05-05 15:06 | 28.97099 | -81.29962 | 15279 ft | 381 kts | 352° |
| 2026-05-05 15:06 | 28.99750 | -81.30178 | 15823 ft | 383 kts | 352° |
| 2026-05-05 15:07 | 29.02417 | -81.30436 | 16368 ft | 385 kts | 351° |
| 2026-05-05 15:07 | 29.05091 | -81.30731 | 16902 ft | 387 kts | 350° |
| 2026-05-05 15:07 | 29.07775 | -81.31046 | 17451 ft | 389 kts | 350° |
| 2026-05-05 15:07 | 29.10477 | -81.31366 | 17998 ft | 391 kts | 350° |
| 2026-05-05 15:08 | 29.12060 | -81.31533 | 18319 ft | 393 kts | 351° |
| 2026-05-05 15:08 | 29.13965 | -81.31678 | 18638 ft | 396 kts | 352° |
| 2026-05-05 15:08 | 29.16721 | -81.31845 | 19139 ft | 397 kts | 353° |
| 2026-05-05 15:08 | 29.19485 | -81.31989 | 19641 ft | 399 kts | 353° |
| 2026-05-05 15:09 | 29.22261 | -81.32130 | 20169 ft | 400 kts | 352° |
| 2026-05-05 15:09 | 29.25042 | -81.32275 | 20666 ft | 401 kts | 352° |
| 2026-05-05 15:09 | 29.27829 | -81.32433 | 21147 ft | 401 kts | 351° |
| 2026-05-05 15:09 | 29.30622 | -81.32601 | 21615 ft | 403 kts | 351° |
| 2026-05-05 15:10 | 29.33425 | -81.32774 | 22076 ft | 404 kts | 351° |
| 2026-05-05 15:10 | 29.36233 | -81.32946 | 22521 ft | 405 kts | 351° |
| 2026-05-05 15:10 | 29.39053 | -81.33116 | 22962 ft | 406 kts | 351° |
| 2026-05-05 15:10 | 29.40924 | -81.33229 | 23243 ft | 407 kts | 351° |
| 2026-05-05 15:11 | 29.43757 | -81.33398 | 23665 ft | 408 kts | 350° |
| 2026-05-05 15:11 | 29.46591 | -81.33570 | 24005 ft | 410 kts | 350° |
| 2026-05-05 15:11 | 29.49446 | -81.33740 | 24359 ft | 411 kts | 350° |
| 2026-05-05 15:11 | 29.52302 | -81.33910 | 24705 ft | 412 kts | 350° |
| 2026-05-05 15:12 | 29.55165 | -81.34083 | 25064 ft | 412 kts | 350° |
| 2026-05-05 15:12 | 29.58031 | -81.34259 | 25415 ft | 413 kts | 350° |
| 2026-05-05 15:12 | 29.60909 | -81.34437 | 25783 ft | 414 kts | 350° |
| 2026-05-05 15:12 | 29.63786 | -81.34614 | 26137 ft | 415 kts | 351° |
| 2026-05-05 15:13 | 29.67659 | -81.34841 | 26609 ft | 417 kts | 351° |
| 2026-05-05 15:13 | 29.69580 | -81.34949 | 26854 ft | 417 kts | 351° |
| 2026-05-05 15:13 | 29.72469 | -81.35106 | 27365 ft | 414 kts | 351° |
| 2026-05-05 15:13 | 29.75336 | -81.35265 | 27895 ft | 411 kts | 351° |
| 2026-05-05 15:14 | 29.78180 | -81.35424 | 28429 ft | 408 kts | 351° |
| 2026-05-05 15:14 | 29.81005 | -81.35584 | 28963 ft | 405 kts | 351° |
| 2026-05-05 15:14 | 29.83818 | -81.35746 | 29494 ft | 402 kts | 351° |
| 2026-05-05 15:14 | 29.86604 | -81.35906 | 30031 ft | 400 kts | 351° |
| 2026-05-05 15:15 | 29.89374 | -81.36062 | 30512 ft | 397 kts | 350° |
| 2026-05-05 15:15 | 29.92120 | -81.36216 | 30992 ft | 393 kts | 350° |
| 2026-05-05 15:15 | 29.94838 | -81.36373 | 31505 ft | 389 kts | 350° |
| 2026-05-05 15:15 | 29.97524 | -81.36529 | 32032 ft | 384 kts | 350° |
| 2026-05-05 15:16 | 30.00178 | -81.36685 | 32560 ft | 380 kts | 349° |
| 2026-05-05 15:16 | 30.02800 | -81.36838 | 33102 ft | 375 kts | 349° |
| 2026-05-05 15:16 | 30.05386 | -81.36988 | 33651 ft | 370 kts | 349° |
| 2026-05-05 15:16 | 30.07945 | -81.37133 | 34187 ft | 366 kts | 349° |
| 2026-05-05 15:17 | 30.10468 | -81.37275 | 34614 ft | 362 kts | 349° |
| 2026-05-05 15:17 | 30.12977 | -81.37420 | 34969 ft | 360 kts | 348° |
| 2026-05-05 15:17 | 30.15478 | -81.37567 | 35110 ft | 361 kts | 348° |
| 2026-05-05 15:18 | 30.20578 | -81.37878 | 35129 ft | 372 kts | 349° |
| 2026-05-05 15:18 | 30.25768 | -81.38182 | 35129 ft | 374 kts | 349° |
| 2026-05-05 15:19 | 30.30972 | -81.38477 | 35140 ft | 374 kts | 349° |
| 2026-05-05 15:19 | 30.36175 | -81.38775 | 35141 ft | 374 kts | 349° |
| 2026-05-05 15:20 | 30.41381 | -81.39071 | 35142 ft | 374 kts | 349° |
| 2026-05-05 15:20 | 30.46584 | -81.39369 | 35148 ft | 375 kts | 349° |
| 2026-05-05 15:21 | 30.51797 | -81.39653 | 35159 ft | 375 kts | 349° |
| 2026-05-05 15:21 | 30.57011 | -81.39927 | 35167 ft | 375 kts | 349° |
| 2026-05-05 15:22 | 30.62222 | -81.40206 | 35171 ft | 375 kts | 349° |
| 2026-05-05 15:22 | 30.67436 | -81.40485 | 35172 ft | 375 kts | 349° |
| 2026-05-05 15:23 | 30.72646 | -81.40757 | 35161 ft | 375 kts | 349° |
| 2026-05-05 15:23 | 30.77863 | -81.41033 | 35162 ft | 375 kts | 349° |
| 2026-05-05 15:24 | 30.83075 | -81.41310 | 35156 ft | 375 kts | 349° |
| 2026-05-05 15:24 | 30.88286 | -81.41587 | 35144 ft | 375 kts | 349° |
| 2026-05-05 15:25 | 30.93498 | -81.41866 | 35145 ft | 375 kts | 349° |
| 2026-05-05 15:25 | 30.98706 | -81.42146 | 35144 ft | 375 kts | 349° |
| 2026-05-05 15:26 | 31.03915 | -81.42427 | 35147 ft | 375 kts | 349° |
| 2026-05-05 15:26 | 31.09122 | -81.42702 | 35152 ft | 375 kts | 349° |
| 2026-05-05 15:27 | 31.14334 | -81.42974 | 35153 ft | 375 kts | 349° |
| 2026-05-05 15:27 | 31.19544 | -81.43251 | 35155 ft | 375 kts | 349° |
| 2026-05-05 15:28 | 31.24789 | -81.43213 | 35173 ft | 387 kts | 0° |
| 2026-05-05 15:28 | 31.27431 | -81.42357 | 35172 ft | 403 kts | 11° |
| 2026-05-05 15:28 | 31.30004 | -81.40990 | 35177 ft | 407 kts | 13° |
| 2026-05-05 15:29 | 31.35144 | -81.38192 | 35172 ft | 407 kts | 13° |
| 2026-05-05 15:29 | 31.40286 | -81.35402 | 35169 ft | 407 kts | 13° |
| 2026-05-05 15:30 | 31.45463 | -81.32598 | 35163 ft | 407 kts | 13° |
| 2026-05-05 15:30 | 31.50600 | -81.29802 | 35162 ft | 407 kts | 13° |
| 2026-05-05 15:31 | 31.55731 | -81.27003 | 35153 ft | 406 kts | 13° |
| 2026-05-05 15:31 | 31.60857 | -81.24214 | 35150 ft | 406 kts | 13° |
| 2026-05-05 15:32 | 31.65983 | -81.21434 | 35148 ft | 406 kts | 13° |
| 2026-05-05 15:32 | 31.71100 | -81.18641 | 35146 ft | 406 kts | 13° |
| 2026-05-05 15:33 | 31.76211 | -81.15833 | 35141 ft | 405 kts | 13° |
| 2026-05-05 15:33 | 31.81316 | -81.13034 | 35130 ft | 405 kts | 13° |
| 2026-05-05 15:34 | 31.86418 | -81.10237 | 35137 ft | 404 kts | 13° |
| 2026-05-05 15:34 | 31.91517 | -81.07442 | 35145 ft | 404 kts | 13° |
| 2026-05-05 15:35 | 31.96614 | -81.04636 | 35137 ft | 404 kts | 13° |
| 2026-05-05 15:35 | 32.01701 | -81.01830 | 35140 ft | 403 kts | 13° |
| 2026-05-05 15:36 | 32.06778 | -80.99000 | 35146 ft | 404 kts | 14° |
| 2026-05-05 15:36 | 32.11850 | -80.96157 | 35146 ft | 404 kts | 14° |
| 2026-05-05 15:37 | 32.16924 | -80.93311 | 35172 ft | 404 kts | 14° |
| 2026-05-05 15:37 | 32.21989 | -80.90461 | 35179 ft | 403 kts | 14° |
| 2026-05-05 15:38 | 32.27053 | -80.87612 | 35179 ft | 403 kts | 14° |
| 2026-05-05 15:38 | 32.32117 | -80.84765 | 35179 ft | 403 kts | 14° |
| 2026-05-05 15:39 | 32.37177 | -80.81923 | 35173 ft | 403 kts | 14° |
| 2026-05-05 15:39 | 32.42240 | -80.79075 | 35178 ft | 403 kts | 14° |
| 2026-05-05 15:40 | 32.47297 | -80.76218 | 35177 ft | 402 kts | 14° |
| 2026-05-05 15:40 | 32.52347 | -80.73359 | 35176 ft | 402 kts | 14° |
| 2026-05-05 15:41 | 32.57395 | -80.70497 | 35175 ft | 402 kts | 14° |
| 2026-05-05 15:41 | 32.62442 | -80.67641 | 35174 ft | 402 kts | 14° |
| 2026-05-05 15:42 | 32.67489 | -80.64782 | 35172 ft | 402 kts | 14° |
| 2026-05-05 15:42 | 32.72533 | -80.61916 | 35175 ft | 403 kts | 15° |
| 2026-05-05 15:43 | 32.77557 | -80.58950 | 35180 ft | 404 kts | 15° |
| 2026-05-05 15:43 | 32.82569 | -80.55939 | 35175 ft | 404 kts | 16° |
| 2026-05-05 15:44 | 32.87584 | -80.52938 | 35180 ft | 403 kts | 15° |
| 2026-05-05 15:44 | 32.92606 | -80.49952 | 35180 ft | 403 kts | 15° |
| 2026-05-05 15:45 | 32.97632 | -80.46966 | 35184 ft | 404 kts | 16° |
| 2026-05-05 15:45 | 33.02659 | -80.43965 | 35166 ft | 404 kts | 16° |
| 2026-05-05 15:46 | 33.07684 | -80.40957 | 35163 ft | 404 kts | 16° |
| 2026-05-05 15:46 | 33.12710 | -80.37953 | 35163 ft | 404 kts | 16° |
| 2026-05-05 15:47 | 33.17734 | -80.34945 | 35158 ft | 404 kts | 16° |
| 2026-05-05 15:47 | 33.21945 | -80.32414 | 35156 ft | 404 kts | 16° |
| 2026-05-05 15:48 | 33.26971 | -80.29394 | 35157 ft | 404 kts | 16° |
| 2026-05-05 15:48 | 33.31997 | -80.26375 | 35159 ft | 404 kts | 16° |
| 2026-05-05 15:49 | 33.37021 | -80.23351 | 35165 ft | 404 kts | 16° |
| 2026-05-05 15:49 | 33.42044 | -80.20313 | 35174 ft | 404 kts | 16° |
| 2026-05-05 15:50 | 33.47060 | -80.17283 | 35183 ft | 404 kts | 16° |
| 2026-05-05 15:50 | 33.51909 | -80.14355 | 35174 ft | 404 kts | 16° |
| 2026-05-05 15:51 | 33.56926 | -80.11319 | 35174 ft | 404 kts | 16° |
| 2026-05-05 15:51 | 33.61887 | -80.08316 | 35173 ft | 404 kts | 16° |
| 2026-05-05 15:52 | 33.66903 | -80.05277 | 35169 ft | 404 kts | 16° |
| 2026-05-05 15:52 | 33.71924 | -80.02223 | 35171 ft | 404 kts | 17° |
| 2026-05-05 15:53 | 33.76922 | -79.99177 | 35173 ft | 404 kts | 17° |
| 2026-05-05 15:53 | 33.81939 | -79.96125 | 35175 ft | 404 kts | 17° |
| 2026-05-05 15:54 | 33.86952 | -79.93078 | 35172 ft | 404 kts | 17° |
| 2026-05-05 15:54 | 33.91957 | -79.90013 | 35166 ft | 404 kts | 17° |
| 2026-05-05 15:55 | 33.96963 | -79.86948 | 35158 ft | 404 kts | 17° |
| 2026-05-05 15:55 | 34.01974 | -79.83885 | 35161 ft | 404 kts | 17° |
| 2026-05-05 15:56 | 34.06986 | -79.80815 | 35161 ft | 404 kts | 17° |
| 2026-05-05 15:56 | 34.12000 | -79.77732 | 35160 ft | 405 kts | 17° |
| 2026-05-05 15:57 | 34.17023 | -79.74641 | 35158 ft | 405 kts | 17° |
| 2026-05-05 15:57 | 34.22048 | -79.71548 | 35157 ft | 406 kts | 17° |
| 2026-05-05 15:58 | 34.27063 | -79.68461 | 35157 ft | 406 kts | 17° |
| 2026-05-05 15:58 | 34.32111 | -79.65342 | 35155 ft | 407 kts | 18° |
| 2026-05-05 15:59 | 34.37151 | -79.62218 | 35148 ft | 407 kts | 18° |
| 2026-05-05 15:59 | 34.42197 | -79.59097 | 35144 ft | 407 kts | 18° |
| 2026-05-05 16:00 | 34.47245 | -79.55969 | 35146 ft | 408 kts | 18° |
| 2026-05-05 16:00 | 34.52293 | -79.52834 | 35148 ft | 408 kts | 18° |
| 2026-05-05 16:01 | 34.57345 | -79.49664 | 35141 ft | 410 kts | 19° |
| 2026-05-05 16:01 | 34.62348 | -79.46312 | 35151 ft | 411 kts | 20° |
| 2026-05-05 16:02 | 34.67336 | -79.42887 | 35150 ft | 412 kts | 20° |
| 2026-05-05 16:02 | 34.72545 | -79.40465 | 35152 ft | 393 kts | 3° |
| 2026-05-05 16:03 | 34.77936 | -79.39351 | 35148 ft | 393 kts | 3° |
| 2026-05-05 16:03 | 34.83338 | -79.38205 | 35142 ft | 394 kts | 3° |
| 2026-05-05 16:04 | 34.88753 | -79.37045 | 35141 ft | 395 kts | 3° |
| 2026-05-05 16:04 | 34.94177 | -79.35884 | 35139 ft | 396 kts | 3° |
| 2026-05-05 16:05 | 34.99616 | -79.34727 | 35102 ft | 397 kts | 3° |
| 2026-05-05 16:05 | 35.05065 | -79.33559 | 35108 ft | 398 kts | 3° |
| 2026-05-05 16:06 | 35.10531 | -79.32386 | 35134 ft | 399 kts | 3° |
| 2026-05-05 16:06 | 35.16007 | -79.31214 | 35141 ft | 400 kts | 3° |
| 2026-05-05 16:07 | 35.21496 | -79.30033 | 35144 ft | 401 kts | 3° |
| 2026-05-05 16:07 | 35.27027 | -79.28843 | 35137 ft | 401 kts | 3° |
| 2026-05-05 16:08 | 35.32534 | -79.27660 | 35135 ft | 402 kts | 3° |
| 2026-05-05 16:08 | 35.38054 | -79.26472 | 35127 ft | 403 kts | 3° |
| 2026-05-05 16:09 | 35.43588 | -79.25275 | 35120 ft | 404 kts | 4° |
| 2026-05-05 16:09 | 35.49133 | -79.24075 | 35120 ft | 405 kts | 4° |
| 2026-05-05 16:10 | 35.54689 | -79.22871 | 35123 ft | 406 kts | 4° |
| 2026-05-05 16:10 | 35.60256 | -79.21659 | 35129 ft | 407 kts | 4° |
| 2026-05-05 16:11 | 35.65834 | -79.20447 | 35123 ft | 408 kts | 4° |
| 2026-05-05 16:11 | 35.74182 | -79.18236 | 35114 ft | 418 kts | 15° |
| 2026-05-05 16:12 | 35.76808 | -79.16603 | 35110 ft | 429 kts | 25° |
| 2026-05-05 16:13 | 35.89111 | -79.05885 | 35092 ft | 434 kts | 27° |
| 2026-05-05 16:13 | 35.94057 | -79.01582 | 35098 ft | 435 kts | 27° |
| 2026-05-05 16:14 | 36.03964 | -78.92930 | 35102 ft | 437 kts | 28° |
| 2026-05-05 16:15 | 36.13901 | -78.84215 | 35104 ft | 439 kts | 28° |
| 2026-05-05 16:16 | 36.23877 | -78.75435 | 35101 ft | 441 kts | 28° |
| 2026-05-05 16:17 | 36.31381 | -78.68808 | 35091 ft | 442 kts | 28° |
| 2026-05-05 16:18 | 36.38898 | -78.62157 | 35101 ft | 443 kts | 28° |
| 2026-05-05 16:19 | 36.46444 | -78.55528 | 35103 ft | 442 kts | 27° |
| 2026-05-05 16:19 | 36.54234 | -78.49457 | 35095 ft | 440 kts | 24° |
| 2026-05-05 16:20 | 36.64672 | -78.41414 | 35081 ft | 442 kts | 25° |
| 2026-05-05 16:22 | 36.77675 | -78.31139 | 35080 ft | 443 kts | 26° |
| 2026-05-05 16:23 | 36.88096 | -78.22902 | 35071 ft | 444 kts | 26° |
| 2026-05-05 16:23 | 36.95923 | -78.16703 | 35054 ft | 444 kts | 26° |
| 2026-05-05 16:24 | 37.01144 | -78.12556 | 35060 ft | 445 kts | 26° |
| 2026-05-05 16:25 | 37.08975 | -78.06310 | 35072 ft | 445 kts | 26° |
| 2026-05-05 16:25 | 37.16806 | -78.00054 | 35077 ft | 445 kts | 26° |
| 2026-05-05 16:26 | 37.26406 | -77.92379 | 35075 ft | 445 kts | 26° |
| 2026-05-05 16:27 | 37.31622 | -77.88191 | 35069 ft | 445 kts | 27° |
| 2026-05-05 16:27 | 37.36837 | -77.84001 | 35074 ft | 445 kts | 27° |
| 2026-05-05 16:28 | 37.42048 | -77.79810 | 35073 ft | 445 kts | 27° |
| 2026-05-05 16:28 | 37.47264 | -77.75604 | 35079 ft | 445 kts | 27° |
| 2026-05-05 16:29 | 37.52478 | -77.71394 | 35082 ft | 445 kts | 27° |
| 2026-05-05 16:29 | 37.57694 | -77.67176 | 35080 ft | 446 kts | 27° |
| 2026-05-05 16:30 | 37.62915 | -77.62959 | 35067 ft | 446 kts | 27° |
| 2026-05-05 16:30 | 37.68139 | -77.58739 | 35082 ft | 446 kts | 27° |
| 2026-05-05 16:31 | 37.73369 | -77.54507 | 35083 ft | 446 kts | 27° |
| 2026-05-05 16:31 | 37.78600 | -77.50283 | 35087 ft | 446 kts | 27° |
| 2026-05-05 16:32 | 37.83825 | -77.46039 | 35076 ft | 447 kts | 27° |
| 2026-05-05 16:32 | 37.89045 | -77.41775 | 35070 ft | 447 kts | 27° |
| 2026-05-05 16:33 | 37.94267 | -77.37507 | 35053 ft | 447 kts | 27° |
| 2026-05-05 16:33 | 37.99493 | -77.33236 | 35018 ft | 447 kts | 27° |
| 2026-05-05 16:34 | 38.04732 | -77.28950 | 34998 ft | 449 kts | 27° |
| 2026-05-05 16:34 | 38.09981 | -77.24649 | 35003 ft | 449 kts | 27° |
| 2026-05-05 16:35 | 38.15240 | -77.20337 | 34997 ft | 450 kts | 27° |
| 2026-05-05 16:35 | 38.20499 | -77.16015 | 35005 ft | 450 kts | 27° |
| 2026-05-05 16:36 | 38.25763 | -77.11678 | 35003 ft | 451 kts | 27° |
| 2026-05-05 16:36 | 38.31003 | -77.07278 | 35016 ft | 453 kts | 29° |
| 2026-05-05 16:37 | 38.36075 | -77.02473 | 35011 ft | 455 kts | 32° |
| 2026-05-05 16:37 | 38.41064 | -76.97491 | 35016 ft | 456 kts | 32° |
| 2026-05-05 16:38 | 38.46000 | -76.92631 | 35009 ft | 455 kts | 31° |
| 2026-05-05 16:38 | 38.51055 | -76.87762 | 35012 ft | 455 kts | 31° |
| 2026-05-05 16:39 | 38.56120 | -76.82891 | 34995 ft | 456 kts | 31° |
| 2026-05-05 16:39 | 38.61177 | -76.78000 | 35001 ft | 456 kts | 31° |
| 2026-05-05 16:40 | 38.66231 | -76.73092 | 34996 ft | 456 kts | 32° |
| 2026-05-05 16:40 | 38.71283 | -76.68164 | 34999 ft | 457 kts | 32° |
| 2026-05-05 16:41 | 38.76334 | -76.63233 | 34996 ft | 457 kts | 32° |
| 2026-05-05 16:41 | 38.81392 | -76.58301 | 35001 ft | 457 kts | 32° |
| 2026-05-05 16:42 | 38.86447 | -76.53351 | 34994 ft | 457 kts | 32° |
| 2026-05-05 16:42 | 38.91501 | -76.48392 | 35003 ft | 457 kts | 32° |
| 2026-05-05 16:43 | 38.96553 | -76.43429 | 34997 ft | 457 kts | 32° |
| 2026-05-05 16:43 | 39.01606 | -76.38464 | 34995 ft | 457 kts | 32° |
| 2026-05-05 16:44 | 39.06544 | -76.33254 | 35004 ft | 460 kts | 37° |
| 2026-05-05 16:44 | 39.08913 | -76.30486 | 34696 ft | 461 kts | 38° |
| 2026-05-05 16:44 | 39.11284 | -76.27639 | 33484 ft | 468 kts | 38° |
| 2026-05-05 16:45 | 39.13642 | -76.24774 | 32503 ft | 462 kts | 38° |
| 2026-05-05 16:45 | 39.16006 | -76.21910 | 31602 ft | 462 kts | 38° |
| 2026-05-05 16:45 | 39.18354 | -76.19104 | 30677 ft | 457 kts | 38° |
| 2026-05-05 16:45 | 39.20689 | -76.16348 | 29572 ft | 455 kts | 38° |
| 2026-05-05 16:46 | 39.23023 | -76.13621 | 28547 ft | 449 kts | 37° |
| 2026-05-05 16:46 | 39.25338 | -76.10928 | 27527 ft | 450 kts | 37° |
| 2026-05-05 16:46 | 39.27679 | -76.08212 | 26455 ft | 455 kts | 38° |
| 2026-05-05 16:46 | 39.30028 | -76.05482 | 26080 ft | 455 kts | 38° |
| 2026-05-05 16:47 | 39.32380 | -76.02735 | 25823 ft | 456 kts | 38° |
| 2026-05-05 16:47 | 39.34727 | -75.99973 | 25594 ft | 457 kts | 38° |
| 2026-05-05 16:47 | 39.37065 | -75.97209 | 25194 ft | 455 kts | 38° |
| 2026-05-05 16:47 | 39.39393 | -75.94456 | 24797 ft | 453 kts | 38° |
| 2026-05-05 16:48 | 39.40113 | -75.93607 | 24674 ft | 452 kts | 38° |
| 2026-05-05 16:48 | 39.42343 | -75.90967 | 24301 ft | 450 kts | 38° |
| 2026-05-05 16:48 | 39.44652 | -75.88233 | 23909 ft | 448 kts | 38° |
| 2026-05-05 16:48 | 39.46947 | -75.85517 | 23513 ft | 446 kts | 38° |
| 2026-05-05 16:49 | 39.49231 | -75.82815 | 23090 ft | 444 kts | 38° |
| 2026-05-05 16:49 | 39.51510 | -75.80118 | 22708 ft | 442 kts | 38° |
| 2026-05-05 16:49 | 39.53772 | -75.77435 | 22327 ft | 440 kts | 38° |
| 2026-05-05 16:49 | 39.55479 | -75.75405 | 22043 ft | 439 kts | 39° |
| 2026-05-05 16:50 | 39.57457 | -75.73046 | 21706 ft | 437 kts | 39° |
| 2026-05-05 16:50 | 39.58642 | -75.71636 | 21513 ft | 436 kts | 38° |
| 2026-05-05 16:51 | 39.59403 | -75.70734 | 21376 ft | 435 kts | 38° |
| 2026-05-05 16:51 | 39.61630 | -75.68093 | 21001 ft | 433 kts | 38° |
| 2026-05-05 16:51 | 39.63848 | -75.65457 | 20627 ft | 432 kts | 39° |
| 2026-05-05 16:51 | 39.66054 | -75.62827 | 20247 ft | 430 kts | 39° |
| 2026-05-05 16:52 | 39.67660 | -75.60909 | 19982 ft | 430 kts | 39° |